Home   Weather   Viviers   Past weeks
Flag for France

Past Weather in Viviers, Ardèche, France — Yesterday and Last 2 Weeks

Currently: 34 °F. Passing clouds. (Weather station: Grenoble / St. Geoirs, France). See more current weather

Past Weather in Viviers — Graph

°F

Viviers Temperature Yesterday

Maximum temperature yesterday: 46 °F (at 3:30 pm)
Minimum temperature yesterday: 23 °F (at 3:00 am)
Average temperature yesterday: 32 °F

High & Low Weather Summary for the Past Weeks

 TemperatureHumidityPressure
High46 °F (Jan 19, 3:30 pm)100% (Jan 5, 7:30 am)30.39 "Hg (Jan 5, 7:30 am)
Low23 °F (Jan 19, 3:00 am)53% (Jan 19, 3:30 pm)29.80 "Hg (Jan 5, 7:00 am)
Average32 °F88%30.10 "Hg
* Reported Jan 5 7:00 am — Jan 20 7:00 am, Viviers. Weather by CustomWeather, © 2021

Note: Actual official high and low records may vary slightly from our data, if they occured in-between our weather recording intervals... More about our weather records

Viviers Weather History for the Previous 24 Hours

Scroll right to see more
 ConditionsComfort  
Time TempWeatherWind HumidityBarometerVisibility
7:00 am
Wed, Jan 20
32 °FPassing clouds.12 mph93%29.95 "HgN/A
6:30 am34 °FPassing clouds.5 mph87%29.95 "HgN/A
6:00 am30 °FClear.3 mph86%29.95 "Hg10 mi
5:30 am28 °FPassing clouds.3 mph93%29.95 "HgN/A
5:00 am28 °FClear.3 mph86%29.98 "Hg10 mi
4:30 am28 °FPassing clouds.5 mph86%29.98 "HgN/A
4:00 am28 °FPassing clouds.5 mph93%29.98 "HgN/A
3:30 am28 °FPassing clouds.6 mph86%30.01 "HgN/A
3:00 am27 °FClear.9 mph93%30.01 "Hg10 mi
2:30 am28 °FClear.3 mph86%30.01 "Hg10 mi
2:00 am30 °FPassing clouds.5 mph86%30.04 "HgN/A
1:30 am28 °FClear.8 mph80%30.04 "Hg10 mi
1:00 am34 °FClear.3 mph75%30.04 "Hg10 mi
12:30 am36 °FClear.3 mph81%30.07 "Hg10 mi
12:00 am32 °FPassing clouds.6 mph80%30.07 "HgN/A
11:30 pm
Tue, Jan 19
34 °FPassing clouds.5 mph75%30.09 "HgN/A
11:00 pm32 °FClear.3 mph80%30.09 "Hg10 mi
10:30 pm34 °FPassing clouds.5 mph81%30.09 "HgN/A
10:00 pm34 °FClear.8 mph81%30.09 "Hg10 mi
9:30 pm32 °FClear.8 mph80%30.09 "Hg10 mi
9:00 pm32 °FClear.3 mph80%30.09 "Hg10 mi
8:30 pm32 °FClear.5 mph80%30.09 "Hg10 mi
8:00 pm32 °FClear.7 mph87%30.09 "Hg10 mi
7:30 pm32 °FPassing clouds.6 mph87%30.09 "HgN/A
7:00 pm34 °FPassing clouds.5 mph81%30.09 "HgN/A
6:30 pm34 °FClear.6 mph81%30.09 "Hg10 mi
6:00 pm34 °FClear.8 mph81%30.09 "Hg10 mi
5:30 pm36 °FClear.6 mph81%30.09 "Hg10 mi
5:00 pm39 °FSunny.7 mph75%30.09 "Hg10 mi
4:30 pm43 °FSunny.7 mph71%30.12 "Hg10 mi
4:00 pm45 °FPassing clouds.6 mph66%30.12 "HgN/A
3:30 pm46 °FPassing clouds.6 mph53%30.12 "HgN/A
3:00 pm45 °FPassing clouds.7 mph66%30.12 "HgN/A
2:30 pm45 °FSunny.8 mph61%30.12 "Hg10 mi
1:30 pm43 °FSunny.10 mph66%30.15 "Hg10 mi
1:00 pm41 °FSunny.9 mph66%30.18 "Hg10 mi
12:30 pm39 °FSunny.9 mph70%30.18 "Hg10 mi
12:00 pm37 °FSunny.10 mph75%30.18 "Hg10 mi
11:30 am36 °FSunny.12 mph81%30.21 "Hg10 mi
11:00 am34 °FSunny.13 mph81%30.21 "Hg10 mi
10:30 am32 °FSunny.13 mph87%30.21 "Hg10 mi
10:00 am32 °FSunny.12 mph87%30.21 "Hg10 mi
9:30 am28 °FSunny.12 mph93%30.21 "Hg10 mi
9:00 am27 °FSunny.9 mph93%30.21 "Hg10 mi
8:30 am23 °FSunny.9 mph93%30.21 "Hg10 mi
8:00 am23 °FClear.9 mph93%30.21 "Hg10 mi
Weather by CustomWeather, © 2021

See weather overview